createdAt,value
2022-08-12T00:02:03.304Z,101791.72
2022-08-12T00:04:52.745Z,101787.63
2022-08-12T00:07:39.096Z,101789.56
2022-08-12T00:10:25.398Z,101797.63
2022-08-12T00:13:12.343Z,101793.88
2022-08-12T00:16:00.405Z,101792.84
2022-08-12T00:18:45.852Z,101789.56
2022-08-12T00:21:36.092Z,101797.03
2022-08-12T00:24:22.118Z,101788.81
2022-08-12T00:27:07.926Z,101794.34
2022-08-12T00:29:53.675Z,101802.09
2022-08-12T00:32:39.866Z,101800.44
2022-08-12T00:35:40.817Z,101801.88
2022-08-12T00:38:27.498Z,101794.53
2022-08-12T00:41:12.982Z,101798.91
2022-08-12T00:43:44.734Z,101800.84
2022-08-12T00:46:30.227Z,101792.06
2022-08-12T00:48:58.552Z,101793.19
2022-08-12T00:51:47.629Z,101788.28
2022-08-12T00:54:16.858Z,101798.78
2022-08-12T00:56:44.645Z,101786.75
2022-08-12T00:59:12.937Z,101784.81
2022-08-12T01:02:10.801Z,101792.25
2022-08-12T01:04:52.326Z,101799.19
2022-08-12T01:07:42.980Z,101790.41
2022-08-12T01:10:32.608Z,101797.06
2022-08-12T01:13:18.251Z,101793.50
2022-08-12T01:15:49.361Z,101802.38
2022-08-12T01:18:18.616Z,101795.22
2022-08-12T01:20:54.703Z,101798.28
2022-08-12T01:23:42.002Z,101795.81
2022-08-12T01:26:17.497Z,101799.69
2022-08-12T01:28:47.720Z,101799.50
2022-08-12T01:31:19.969Z,101795.09
2022-08-12T01:33:59.730Z,101800.91
2022-08-12T01:36:29.265Z,101800.38
2022-08-12T01:39:00.116Z,101800.19
2022-08-12T01:41:31.961Z,101798.84
2022-08-12T01:44:02.270Z,101801.91
2022-08-12T01:46:43.248Z,101791.47
2022-08-12T01:49:31.088Z,101800.03
2022-08-12T01:52:20.827Z,101797.38
2022-08-12T01:54:52.000Z,101785.53
2022-08-12T01:57:59.822Z,101795.19
2022-08-12T02:00:17.895Z,101796.59
2022-08-12T02:02:51.330Z,101783.44
2022-08-12T02:05:49.440Z,101784.56
2022-08-12T02:08:52.321Z,101786.78
2022-08-12T02:11:25.658Z,101788.22
2022-08-12T02:14:21.488Z,101789.63
2022-08-12T02:17:05.281Z,101780.03
2022-08-12T02:19:54.632Z,101786.94
2022-08-12T02:22:28.660Z,101779.81
2022-08-12T02:25:02.524Z,101784.81
2022-08-12T02:27:36.023Z,101777.13
2022-08-12T02:30:08.890Z,101778.25
2022-08-12T02:32:40.441Z,101771.41
2022-08-12T02:35:11.841Z,101775.81
2022-08-12T02:37:41.058Z,101780.50
2022-08-12T02:40:12.282Z,101771.72
2022-08-12T02:42:47.465Z,101772.00
2022-08-12T02:45:21.452Z,101779.75
2022-08-12T02:48:00.279Z,101773.44
2022-08-12T02:50:32.500Z,101774.03
2022-08-12T02:53:00.969Z,101779.00
2022-08-12T02:55:34.975Z,101772.69
2022-08-12T02:58:06.860Z,101780.41
2022-08-12T03:00:39.605Z,101777.16
2022-08-12T03:03:11.122Z,101774.69
2022-08-12T03:05:46.080Z,101772.25
2022-08-12T03:08:32.819Z,101774.47
2022-08-12T03:11:03.252Z,101761.00
2022-08-12T03:13:36.156Z,101768.75
2022-08-12T03:16:05.931Z,101769.84
2022-08-12T03:18:35.046Z,101762.19
2022-08-12T03:21:03.331Z,101769.63
2022-08-12T03:23:31.825Z,101765.53
2022-08-12T03:26:01.679Z,101760.34
2022-08-12T03:28:48.915Z,101761.75
2022-08-12T03:31:19.593Z,101754.09
2022-08-12T03:34:00.915Z,101754.94
2022-08-12T03:36:35.257Z,101752.78
2022-08-12T03:39:36.281Z,101752.28
2022-08-12T03:42:17.465Z,101756.44
2022-08-12T03:45:14.385Z,101754.28
2022-08-12T03:48:05.850Z,101744.69
2022-08-12T03:50:51.274Z,101749.13
2022-08-12T03:53:43.947Z,101748.59
2022-08-12T03:56:29.304Z,101759.09
2022-08-12T03:59:17.674Z,101759.66
2022-08-12T04:01:52.490Z,101744.94
2022-08-12T04:04:23.555Z,101765.22
2022-08-12T04:06:51.536Z,101765.53
2022-08-12T04:09:22.119Z,101776.81
2022-08-12T04:12:08.045Z,101769.16
2022-08-12T04:14:37.715Z,101769.44
2022-08-12T04:17:05.776Z,101770.84
2022-08-12T04:19:34.846Z,101768.41
2022-08-12T04:22:03.727Z,101767.59
2022-08-12T04:24:34.926Z,101774.47
2022-08-12T04:27:05.482Z,101773.66
2022-08-12T04:30:30.649Z,101772.03
2022-08-12T04:32:22.198Z,101759.22
2022-08-12T04:34:51.608Z,101770.38
2022-08-12T04:37:19.266Z,101763.84
2022-08-12T04:39:47.682Z,101766.59
2022-08-12T04:42:16.064Z,101773.50
2022-08-12T04:44:44.423Z,101776.22
2022-08-12T04:47:14.189Z,101773.78
2022-08-12T04:49:44.281Z,101778.75
2022-08-12T04:52:13.888Z,101777.41
2022-08-12T04:54:43.888Z,101780.16
2022-08-12T04:57:11.776Z,101773.00
2022-08-12T04:59:46.829Z,101770.56
2022-08-12T05:02:20.318Z,101771.66
2022-08-12T05:04:50.345Z,101771.13
2022-08-12T05:07:19.452Z,101767.59
2022-08-12T05:10:00.248Z,101767.34
2022-08-12T05:12:34.174Z,101766.53
2022-08-12T05:15:02.095Z,101773.41
2022-08-12T05:17:29.868Z,101774.81
2022-08-12T05:19:58.153Z,101773.19
2022-08-12T05:22:28.220Z,101756.75
2022-08-12T05:24:55.902Z,101768.25
2022-08-12T05:27:23.620Z,101766.91
2022-08-12T05:30:07.972Z,101774.63
2022-08-12T05:32:37.665Z,101780.41
2022-08-12T05:35:08.205Z,101772.75
2022-08-12T05:37:37.293Z,101783.44
2022-08-12T05:40:11.015Z,101784.03
2022-08-12T05:42:39.314Z,101791.44
2022-08-12T05:45:08.316Z,101794.19
2022-08-12T05:47:52.261Z,101800.78
2022-08-12T05:50:21.220Z,101796.13
2022-08-12T05:52:50.262Z,101797.22
2022-08-12T05:55:20.750Z,101804.34
2022-08-12T05:57:55.257Z,101802.72
2022-08-12T06:00:25.852Z,101809.03
2022-08-12T06:02:57.090Z,101797.22
2022-08-12T06:05:24.850Z,101798.03
2022-08-12T06:08:02.159Z,101790.66
2022-08-12T06:10:32.901Z,101801.31
2022-08-12T06:13:02.484Z,101799.63
2022-08-12T06:15:30.899Z,101799.88
2022-08-12T06:18:11.517Z,101798.47
2022-08-12T06:20:43.357Z,101803.41
2022-08-12T06:23:12.755Z,101798.13
2022-08-12T06:25:40.618Z,101802.53
2022-08-12T06:28:17.529Z,101803.59
2022-08-12T06:31:02.668Z,101799.44
2022-08-12T06:33:55.604Z,101795.28
2022-08-12T06:36:29.328Z,101791.44
2022-08-12T06:38:59.268Z,101790.84
2022-08-12T06:42:02.573Z,101790.56
2022-08-12T06:44:32.709Z,101793.00
2022-08-12T06:47:00.605Z,101776.88
2022-08-12T06:49:33.545Z,101788.88
2022-08-12T06:52:01.222Z,101786.63
2022-08-12T06:54:32.306Z,101778.94
2022-08-12T06:57:57.206Z,101781.38
2022-08-12T06:59:48.572Z,101777.22
2022-08-12T07:02:16.374Z,101783.25
2022-08-12T07:04:45.491Z,101781.84
2022-08-12T07:07:13.157Z,101778.50
2022-08-12T07:10:01.193Z,101779.84
2022-08-12T07:12:32.166Z,101782.84
2022-08-12T07:15:02.074Z,101789.69
2022-08-12T07:17:37.546Z,101786.63
2022-08-12T07:20:08.233Z,101785.22
2022-08-12T07:22:36.107Z,101796.75
2022-08-12T07:25:23.382Z,101791.78
2022-08-12T07:27:54.303Z,101789.03
2022-08-12T07:30:23.035Z,101790.97
2022-08-12T07:32:51.510Z,101796.47
2022-08-12T07:35:20.267Z,101793.72
2022-08-12T07:37:50.463Z,101796.75
2022-08-12T07:40:20.873Z,101799.78
2022-08-12T07:42:48.654Z,101800.09
2022-08-12T07:45:16.544Z,101801.19
2022-08-12T07:47:44.869Z,101801.72
2022-08-12T07:50:13.057Z,101800.91
2022-08-12T07:52:44.027Z,101808.63
2022-08-12T07:55:12.594Z,101808.63
2022-08-12T07:57:53.350Z,101809.44
2022-08-12T08:00:21.364Z,101803.94
2022-08-12T08:02:49.455Z,101815.75
2022-08-12T08:05:19.483Z,101804.25
2022-08-12T08:07:47.923Z,101812.19
2022-08-12T08:10:16.642Z,101808.28
2022-08-12T08:12:58.068Z,101811.31
2022-08-12T08:15:58.864Z,101814.06
2022-08-12T08:18:25.701Z,101806.63
2022-08-12T08:20:55.980Z,101811.84
2022-08-12T08:23:43.674Z,101809.09
2022-08-12T08:26:16.457Z,101817.03
2022-08-12T08:28:44.302Z,101817.56
2022-08-12T08:31:14.981Z,101801.91
2022-08-12T08:34:09.652Z,101804.34
2022-08-12T08:36:30.736Z,101807.63
2022-08-12T08:38:58.864Z,101801.84
2022-08-12T08:42:16.661Z,101800.72
2022-08-12T08:44:32.297Z,101798.50
2022-08-12T08:47:03.512Z,101805.34
2022-08-12T08:49:31.285Z,101804.22
2022-08-12T08:51:59.058Z,101802.28
2022-08-12T08:54:26.747Z,101807.19
2022-08-12T08:56:54.476Z,101806.59
2022-08-12T08:59:22.359Z,101807.16
2022-08-12T09:01:50.239Z,101816.75
2022-08-12T09:05:12.014Z,101807.91
2022-08-12T09:07:16.589Z,101801.00
2022-08-12T09:12:55.226Z,101800.88
2022-08-12T09:15:35.558Z,101792.53
2022-08-12T09:18:05.884Z,101798.03
2022-08-12T09:20:39.295Z,101798.25
2022-08-12T09:23:59.372Z,101795.50
2022-08-12T09:26:04.325Z,101792.16
2022-08-12T09:28:53.189Z,101793.50
2022-08-12T09:32:07.889Z,101793.22
2022-08-12T09:34:28.172Z,101795.06
2022-08-12T09:37:18.531Z,101789.47
2022-08-12T09:40:00.948Z,101786.66
2022-08-12T09:43:11.018Z,101787.38
2022-08-12T09:46:19.494Z,101779.34
2022-08-12T09:48:35.164Z,101786.19
2022-08-12T09:51:16.569Z,101777.03
2022-08-12T09:54:09.202Z,101782.50
2022-08-12T09:57:01.799Z,101774.13
2022-08-12T10:00:17.722Z,101779.25
2022-08-12T10:02:53.071Z,101774.28
2022-08-12T10:05:04.319Z,101766.53
2022-08-12T10:07:39.391Z,101757.66
2022-08-12T10:10:24.549Z,101765.31
2022-08-12T10:13:13.461Z,101767.69
2022-08-12T10:16:02.896Z,101763.38
2022-08-12T10:18:35.305Z,101754.72
2022-08-12T10:21:07.335Z,101745.22
2022-08-12T10:23:39.791Z,101752.28
2022-08-12T10:26:36.857Z,101746.97
2022-08-12T10:30:02.860Z,101739.97
2022-08-12T10:32:21.294Z,101737.41
2022-08-12T10:34:53.588Z,101746.91
2022-08-12T10:38:34.846Z,101740.78
2022-08-12T10:40:19.146Z,101737.91
2022-08-12T10:43:06.839Z,101732.59
2022-08-12T10:45:38.489Z,101734.44
2022-08-12T10:48:21.948Z,101728.00
2022-08-12T10:51:01.603Z,101729.81
2022-08-12T10:53:44.936Z,101723.38
2022-08-12T10:56:15.437Z,101712.22
2022-08-12T10:58:47.153Z,101721.50
2022-08-12T11:01:49.911Z,101718.44
2022-08-12T11:04:24.439Z,101713.25
2022-08-12T11:07:08.364Z,101713.25
2022-08-12T11:09:59.983Z,101706.16
2022-08-12T11:12:54.891Z,101705.47
2022-08-12T11:15:32.994Z,101704.41
2022-08-12T11:18:12.114Z,101704.47
2022-08-12T11:20:47.540Z,101685.84
2022-08-12T11:23:24.954Z,101686.53
2022-08-12T11:26:06.247Z,101687.22
2022-08-12T11:28:37.510Z,101684.16
2022-08-12T11:31:12.272Z,101677.50
2022-08-12T11:34:05.092Z,101680.75
2022-08-12T11:36:31.185Z,101678.00
2022-08-12T11:39:04.353Z,101669.41
2022-08-12T11:41:32.903Z,101677.69
2022-08-12T11:44:29.173Z,101672.97
2022-08-12T11:46:50.895Z,101666.00
2022-08-12T11:49:26.786Z,101668.00
2022-08-12T11:52:01.142Z,101659.41
2022-08-12T11:54:29.678Z,101659.34
2022-08-12T11:57:00.180Z,101665.53
2022-08-12T12:01:58.147Z,101663.44
2022-08-12T12:02:20.417Z,101653.22
2022-08-12T12:04:52.820Z,101651.94
2022-08-12T12:08:36.135Z,101650.50
2022-08-12T12:10:12.352Z,101643.19
2022-08-12T12:12:41.489Z,101645.00
2022-08-12T12:15:25.280Z,101648.13
2022-08-12T12:18:06.420Z,101643.88
2022-08-12T12:20:36.263Z,101645.69
2022-08-12T12:23:04.066Z,101643.63
2022-08-12T12:25:59.596Z,101632.59
2022-08-12T12:28:36.947Z,101636.34
2022-08-12T12:31:15.170Z,101627.72
2022-08-12T12:33:58.076Z,101626.59
2022-08-12T12:36:29.322Z,101625.63
2022-08-12T12:38:58.082Z,101619.91
2022-08-12T12:42:52.146Z,101623.66
2022-08-12T12:44:25.786Z,101620.56
2022-08-12T12:46:58.154Z,101624.31
2022-08-12T12:49:27.609Z,101617.81
2022-08-12T12:52:19.099Z,101622.53
2022-08-12T12:54:53.107Z,101612.78
2022-08-12T12:57:21.596Z,101599.75
2022-08-12T13:00:15.674Z,101595.03
2022-08-12T13:02:50.834Z,101602.69
2022-08-12T13:05:27.919Z,101597.63
2022-08-12T13:08:01.121Z,101593.56
2022-08-12T13:10:36.490Z,101587.06
2022-08-12T13:14:08.019Z,101584.13
2022-08-12T13:15:53.895Z,101591.13
2022-08-12T13:18:28.830Z,101585.44
2022-08-12T13:20:59.607Z,101590.63
2022-08-12T13:23:36.943Z,101584.13
2022-08-12T13:26:05.654Z,101581.50
2022-08-12T13:28:35.057Z,101581.16
2022-08-12T13:31:12.934Z,101591.44
2022-08-12T13:34:28.521Z,101581.81
2022-08-12T13:36:31.991Z,101578.72
2022-08-12T13:38:59.666Z,101570.91
2022-08-12T13:41:36.665Z,101565.84
2022-08-12T13:44:06.505Z,101573.97
2022-08-12T13:46:40.768Z,101563.41
2022-08-12T13:49:20.451Z,101562.41
2022-08-12T13:52:02.662Z,101555.88
2022-08-12T13:54:31.206Z,101550.00
2022-08-12T13:56:58.871Z,101560.41
2022-08-12T13:59:28.378Z,101548.00
2022-08-12T14:01:57.478Z,101551.78
2022-08-12T14:04:25.216Z,101542.81
2022-08-12T14:06:55.244Z,101542.59
2022-08-12T14:09:29.523Z,101540.63
2022-08-12T14:11:58.730Z,101537.38
2022-08-12T14:14:31.474Z,101544.88
2022-08-12T14:17:05.722Z,101530.69
2022-08-12T14:19:48.680Z,101531.97
2022-08-12T14:22:21.410Z,101537.19
2022-08-12T14:24:58.268Z,101529.03
2022-08-12T14:28:03.791Z,101533.09
2022-08-12T14:30:28.944Z,101521.81
2022-08-12T14:32:57.639Z,101523.91
2022-08-12T14:35:25.382Z,101521.28
2022-08-12T14:37:58.150Z,101530.06
2022-08-12T14:40:29.365Z,101520.94
2022-08-12T14:42:59.127Z,101509.06
2022-08-12T14:45:45.524Z,101506.91
2022-08-12T14:48:18.497Z,101500.06
2022-08-12T14:51:02.667Z,101505.59
2022-08-12T14:59:56.310Z,101501.50
2022-08-12T15:02:21.074Z,101503.72
2022-08-12T15:04:58.690Z,101504.22
2022-08-12T15:07:34.433Z,101499.81
2022-08-12T15:10:14.848Z,101495.09
2022-08-12T15:12:54.629Z,101495.22
2022-08-12T15:15:22.789Z,101500.09
2022-08-12T15:17:59.377Z,101497.78
2022-08-12T15:20:33.170Z,101494.72
2022-08-12T15:23:05.731Z,101500.72
2022-08-12T15:25:47.745Z,101495.53
2022-08-12T15:28:22.475Z,101494.72
2022-08-12T15:30:53.170Z,101491.94
2022-08-12T15:33:24.332Z,101493.22
2022-08-12T15:35:54.007Z,101487.69
2022-08-12T15:38:25.314Z,101495.31
2022-08-12T15:40:55.242Z,101491.06
2022-08-12T15:43:35.588Z,101493.03
2022-08-12T15:46:15.236Z,101481.00
2022-08-12T15:48:46.446Z,101481.31
2022-08-12T15:51:59.596Z,101480.03
2022-08-12T15:54:30.916Z,101482.47
2022-08-12T15:57:03.480Z,101475.44
2022-08-12T15:59:52.061Z,101471.19
2022-08-12T16:02:20.566Z,101473.63
2022-08-12T16:04:51.201Z,101471.19
2022-08-12T16:07:29.827Z,101468.06
2022-08-12T16:10:10.155Z,101477.06
2022-08-12T16:12:43.288Z,101470.72
2022-08-12T16:15:13.858Z,101469.56
2022-08-12T16:18:18.522Z,101478.34
2022-08-12T16:20:34.301Z,101474.75
2022-08-12T16:23:14.915Z,101469.56
2022-08-12T16:26:05.370Z,101472.19
2022-08-12T16:28:34.977Z,101464.53
2022-08-12T16:31:05.626Z,101468.78
2022-08-12T16:34:00.012Z,101459.19
2022-08-12T16:36:25.374Z,101459.53
2022-08-12T16:38:53.144Z,101460.69
2022-08-12T16:41:21.006Z,101454.66
2022-08-12T16:43:48.687Z,101464.59
2022-08-12T16:46:32.419Z,101458.56
2022-08-12T16:49:09.098Z,101451.75
2022-08-12T16:51:46.434Z,101448.97
2022-08-12T16:54:17.106Z,101448.16
2022-08-12T16:56:55.489Z,101445.72
2022-08-12T16:59:53.006Z,101444.44
2022-08-12T17:02:18.113Z,101437.63
2022-08-12T17:05:03.746Z,101443.50
2022-08-12T17:07:36.820Z,101447.41
2022-08-12T17:10:06.799Z,101450.53
2022-08-12T17:12:37.546Z,101448.09
2022-08-12T17:15:50.413Z,101436.72
2022-08-12T17:18:38.843Z,101451.53
2022-08-12T17:20:47.732Z,101447.28
2022-08-12T17:23:17.060Z,101454.09
2022-08-12T17:25:48.330Z,101446.59
2022-08-12T17:28:17.240Z,101446.28
2022-08-12T17:30:45.991Z,101444.66
2022-08-12T17:33:26.716Z,101437.47
2022-08-12T17:35:58.450Z,101449.72
2022-08-12T17:38:26.811Z,101448.91
2022-08-12T17:40:55.436Z,101449.72
2022-08-12T17:43:55.882Z,101446.13
2022-08-12T17:46:12.879Z,101442.88
2022-08-12T17:48:55.330Z,101449.91
2022-08-12T17:51:24.632Z,101440.78
2022-08-12T17:54:10.362Z,101450.25
2022-08-12T17:56:39.946Z,101443.91
2022-08-12T17:59:12.544Z,101450.91
2022-08-12T18:01:44.451Z,101452.88
2022-08-12T18:04:21.962Z,101453.88
2022-08-12T18:06:51.950Z,101456.31
2022-08-12T18:09:21.166Z,101451.66
2022-08-12T18:12:08.725Z,101466.94
2022-08-12T18:14:36.992Z,101462.41
2022-08-12T18:17:08.454Z,101465.97
2022-08-12T18:20:05.873Z,101469.09
2022-08-12T18:22:31.699Z,101463.41
2022-08-12T18:25:03.728Z,101463.41
2022-08-12T18:27:43.901Z,101466.50
2022-08-12T18:30:20.317Z,101471.59
2022-08-12T18:33:03.906Z,101473.41
2022-08-12T18:35:47.366Z,101476.47
2022-08-12T18:38:22.161Z,101471.28
2022-08-12T18:41:09.842Z,101468.84
2022-08-12T18:43:58.727Z,101473.56
2022-08-12T18:46:47.179Z,101476.66
2022-08-12T18:49:19.268Z,101479.78
2022-08-12T18:51:55.133Z,101480.91
2022-08-12T18:54:32.269Z,101477.66
2022-08-12T18:57:03.880Z,101482.72
2022-08-12T19:00:01.360Z,101476.72
2022-08-12T19:02:23.080Z,101478.66
2022-08-12T19:04:53.541Z,101486.50
2022-08-12T19:07:24.576Z,101484.06
2022-08-12T19:09:59.092Z,101489.13
2022-08-12T19:12:57.488Z,101493.38
2022-08-12T19:15:27.180Z,101486.19
2022-08-12T19:18:02.536Z,101493.22
2022-08-12T19:20:31.691Z,101490.78
2022-08-12T19:23:07.248Z,101494.69
2022-08-12T19:26:02.053Z,101486.25
2022-08-12T19:28:34.352Z,101489.34
2022-08-12T19:31:57.241Z,101486.09
2022-08-12T19:37:17.107Z,101488.22
2022-08-12T19:40:09.841Z,101497.66
2022-08-12T19:42:36.177Z,101499.16
2022-08-12T19:45:12.278Z,101495.06
2022-08-12T19:47:41.024Z,101500.94
2022-08-12T19:50:11.363Z,101507.13
2022-08-12T19:52:40.944Z,101499.97
2022-08-12T19:55:19.897Z,101500.63
2022-08-12T19:58:02.851Z,101498.19
2022-08-12T20:00:34.443Z,101494.09
2022-08-12T20:03:04.629Z,101505.50
2022-08-12T20:06:04.820Z,101499.00
2022-08-12T20:08:34.109Z,101496.56
2022-08-12T20:12:09.107Z,101500.81
2022-08-12T20:14:01.237Z,101504.72
2022-08-12T20:16:52.580Z,101508.13
2022-08-12T20:19:17.477Z,101503.75
2022-08-12T20:21:45.652Z,101511.56
2022-08-12T20:24:14.801Z,101510.75
2022-08-12T20:26:44.295Z,101507.97
2022-08-12T20:29:14.659Z,101507.00
2022-08-12T20:31:44.409Z,101508.16
2022-08-12T20:34:12.696Z,101514.16
2022-08-12T20:36:44.604Z,101508.63
2022-08-12T20:39:37.169Z,101504.56
2022-08-12T20:42:07.904Z,101505.72
2022-08-12T20:44:39.703Z,101507.97
2022-08-12T20:47:17.868Z,101510.25
2022-08-12T20:49:55.700Z,101505.88
2022-08-12T20:52:29.797Z,101504.56
2022-08-12T20:55:15.683Z,101512.38
2022-08-12T20:58:01.849Z,101507.19
2022-08-12T21:00:31.029Z,101509.47
2022-08-12T21:03:19.665Z,101499.53
2022-08-12T21:06:13.602Z,101501.81
2022-08-12T21:08:41.881Z,101507.69
2022-08-12T21:11:10.358Z,101504.41
2022-08-12T21:13:41.908Z,101505.88
2022-08-12T21:16:10.459Z,101508.97
2022-08-12T21:18:38.541Z,101504.91
2022-08-12T21:21:06.845Z,101500.53
2022-08-12T21:23:52.262Z,101503.94
2022-08-12T21:26:24.425Z,101499.53
2022-08-12T21:29:01.260Z,101498.25
2022-08-12T21:32:39.259Z,101498.53
2022-08-12T21:34:22.095Z,101497.25
2022-08-12T21:36:54.068Z,101501.47
2022-08-12T21:39:27.875Z,101500.16
2022-08-12T21:42:06.587Z,101498.84
2022-08-12T21:45:46.510Z,101493.16
2022-08-12T21:47:25.507Z,101495.44
2022-08-12T21:50:03.729Z,101500.47
2022-08-12T21:52:36.222Z,101491.03
2022-08-12T21:55:08.275Z,101508.13
2022-08-12T21:57:54.045Z,101502.41
2022-08-12T22:00:33.160Z,101506.63
2022-08-12T22:03:25.106Z,101501.59
2022-08-12T22:06:31.686Z,101506.31
2022-08-12T22:09:16.247Z,101503.38
2022-08-12T22:11:56.052Z,101510.03
2022-08-12T22:14:25.153Z,101512.13
2022-08-12T22:16:56.052Z,101511.31
2022-08-12T22:19:24.239Z,101512.31
2022-08-12T22:21:54.693Z,101518.66
2022-08-12T22:24:26.584Z,101516.22
2022-08-12T22:26:57.740Z,101518.81
2022-08-12T22:29:48.643Z,101523.50
2022-08-12T22:32:19.117Z,101517.81
2022-08-12T22:35:08.163Z,101522.00
2022-08-12T22:37:38.923Z,101519.25
2022-08-12T22:40:07.769Z,101516.78
2022-08-12T22:42:53.765Z,101518.25
2022-08-12T22:45:48.379Z,101516.31
2022-08-12T22:48:26.541Z,101509.47
2022-08-12T22:50:59.299Z,101511.41
2022-08-12T22:53:35.912Z,101518.41
2022-08-12T22:56:07.034Z,101513.19
2022-08-12T22:58:36.607Z,101517.09
2022-08-12T23:01:10.887Z,101519.69
2022-08-12T23:03:48.558Z,101520.81
2022-08-12T23:06:19.925Z,101519.19
2022-08-12T23:08:48.255Z,101510.22
2022-08-12T23:11:17.184Z,101512.66
2022-08-12T23:13:54.812Z,101520.44
2022-08-12T23:16:29.023Z,101515.25
2022-08-12T23:19:10.980Z,101513.13
2022-08-12T23:22:05.988Z,101509.06
2022-08-12T23:24:55.541Z,101518.78
2022-08-12T23:27:50.354Z,101513.09
2022-08-12T23:30:24.969Z,101515.34
2022-08-12T23:32:54.604Z,101512.91
2022-08-12T23:35:53.917Z,101516.00
2022-08-12T23:38:30.404Z,101513.88
2022-08-12T23:40:59.573Z,101513.38
2022-08-12T23:43:39.025Z,101511.25
2022-08-12T23:46:09.098Z,101509.94
2022-08-12T23:48:37.691Z,101506.66
2022-08-12T23:51:21.696Z,101508.13
2022-08-12T23:53:54.667Z,101506.00
2022-08-12T23:56:24.607Z,101506.59
2022-08-12T23:58:55.009Z,101509.66
